Terminal Aerodrome Forecast
Issued by NWS

Home | Current Version | Previous Version | Text Only | Print | Product List | Glossary On
Versions: 1 2 3 4 5 6 7 8 9 10 11 12 13 14 15 16 17 18 19 20 21 22 23 24 25 26 27 28 29 30 31 32 33 34
000
FTUS45 KGJT 221732
TAFASE
TAF
KASE 221732Z 2218/2318 17009KT 6SM -RA BKN080 OVC100
     FM222000 20011G23KT P6SM VCTS SCT050CB BKN090
     FM230000 21010G20KT P6SM VCSH SCT060 BKN080
     FM230200 18005KT P6SM VCSH SCT070 BKN110
     FM231200 15004KT P6SM SCT060 BKN070=

USA.gov is the U.S. government's official web portal to all federal, state and local government web resources and services.